createdAt,value
2022-08-01T00:01:14.867Z,99.90
2022-08-01T00:06:07.647Z,99.90
2022-08-01T00:11:02.695Z,99.90
2022-08-01T00:15:55.113Z,99.90
2022-08-01T00:20:48.120Z,99.90
2022-08-01T00:25:40.534Z,99.90
2022-08-01T00:30:33.302Z,99.90
2022-08-01T00:35:25.633Z,99.90
2022-08-01T00:40:17.906Z,99.90
2022-08-01T00:45:10.945Z,99.90
2022-08-01T00:50:05.907Z,99.90
2022-08-01T00:54:58.199Z,99.90
2022-08-01T00:59:51.531Z,99.90
2022-08-01T01:04:44.739Z,99.90
2022-08-01T01:09:42.464Z,99.90
2022-08-01T01:15:08.098Z,99.90
2022-08-01T01:20:04.007Z,99.90
2022-08-01T01:25:26.835Z,99.90
2022-08-01T01:30:19.745Z,99.90
2022-08-01T01:35:47.581Z,99.90
2022-08-01T01:40:40.338Z,99.90
2022-08-01T01:45:32.945Z,99.90
2022-08-01T01:50:26.180Z,99.90
2022-08-01T01:55:20.848Z,99.90
2022-08-01T02:00:16.844Z,99.90
2022-08-01T02:05:12.479Z,99.90
2022-08-01T02:10:06.191Z,99.90
2022-08-01T02:14:59.496Z,99.90
2022-08-01T02:19:52.081Z,99.90
2022-08-01T02:24:58.148Z,99.90
2022-08-01T02:30:06.466Z,99.90
2022-08-01T02:35:01.558Z,99.90
2022-08-01T02:39:55.908Z,99.90
2022-08-01T02:44:49.745Z,99.90
2022-08-01T02:49:46.281Z,99.90
2022-08-01T02:54:40.101Z,99.90
2022-08-01T02:59:33.092Z,99.90
2022-08-01T03:04:27.021Z,99.90
2022-08-01T03:09:20.386Z,99.90
2022-08-01T03:14:14.275Z,99.90
2022-08-01T03:19:08.310Z,99.90
2022-08-01T03:24:02.481Z,99.90
2022-08-01T03:28:58.084Z,99.90
2022-08-01T03:33:50.300Z,99.90
2022-08-01T03:38:44.580Z,99.90
2022-08-01T03:43:46.285Z,99.90
2022-08-01T03:48:43.109Z,99.90
2022-08-01T03:53:36.951Z,99.90
2022-08-01T03:58:34.240Z,99.90
2022-08-01T04:03:27.449Z,99.90
2022-08-01T04:08:19.844Z,99.90
2022-08-01T04:13:11.984Z,99.90
2022-08-01T04:18:04.269Z,99.90
2022-08-01T04:22:56.377Z,99.90
2022-08-01T04:27:52.386Z,99.90
2022-08-01T04:32:47.302Z,99.90
2022-08-01T04:37:41.724Z,99.90
2022-08-01T04:42:34.899Z,99.90
2022-08-01T04:47:28.098Z,99.90
2022-08-01T04:52:24.671Z,99.90
2022-08-01T04:57:17.219Z,99.90
2022-08-01T05:02:14.408Z,99.90
2022-08-01T05:07:07.636Z,99.90
2022-08-01T05:12:04.415Z,99.90
2022-08-01T05:16:57.437Z,99.90
2022-08-01T05:21:49.644Z,99.90
2022-08-01T05:26:41.866Z,99.90
2022-08-01T05:31:35.379Z,99.90
2022-08-01T05:36:27.490Z,99.90
2022-08-01T05:41:19.757Z,99.90
2022-08-01T05:46:11.992Z,99.90
2022-08-01T05:51:04.768Z,99.90
2022-08-01T05:55:57.350Z,99.90
2022-08-01T06:00:49.533Z,99.90
2022-08-01T06:05:41.779Z,99.90
2022-08-01T06:10:34.220Z,99.90
2022-08-01T06:15:26.304Z,99.90
2022-08-01T06:20:18.603Z,99.90
2022-08-01T06:25:10.688Z,99.90
2022-08-01T06:30:03.286Z,99.90
2022-08-01T06:34:56.548Z,99.90
2022-08-01T06:39:49.269Z,99.90
2022-08-01T06:44:41.306Z,99.90
2022-08-01T06:49:33.653Z,99.90
2022-08-01T06:54:25.783Z,99.90
2022-08-01T06:59:17.888Z,99.90
2022-08-01T07:04:10.068Z,99.90
2022-08-01T07:09:09.430Z,99.90
2022-08-01T07:14:04.267Z,99.90
2022-08-01T07:18:56.659Z,99.90
2022-08-01T07:23:48.829Z,99.90
2022-08-01T07:28:44.056Z,99.90
2022-08-01T07:33:48.616Z,99.90
2022-08-01T07:38:41.519Z,99.90
2022-08-01T07:43:33.777Z,99.90
2022-08-01T07:48:28.199Z,99.90
2022-08-01T07:53:20.382Z,99.90
2022-08-01T07:58:12.766Z,99.90
2022-08-01T08:03:05.075Z,99.90
2022-08-01T08:07:57.318Z,99.90
2022-08-01T08:12:49.727Z,99.90
2022-08-01T08:17:42.141Z,99.90
2022-08-01T08:22:34.903Z,99.90
2022-08-01T08:27:27.504Z,99.90
2022-08-01T08:32:19.749Z,99.90
2022-08-01T08:37:13.063Z,99.90
2022-08-01T08:42:09.756Z,99.90
2022-08-01T08:47:06.332Z,99.90
2022-08-01T08:52:03.313Z,99.90
2022-08-01T08:56:57.541Z,99.90
2022-08-01T09:01:49.823Z,99.90
2022-08-01T09:06:42.496Z,99.90
2022-08-01T09:11:35.105Z,99.90
2022-08-01T09:16:27.198Z,89.40
2022-08-01T09:21:22.510Z,66.00
2022-08-01T09:26:17.498Z,64.80
2022-08-01T09:31:18.482Z,65.70
2022-08-01T09:36:13.272Z,61.90
2022-08-01T09:41:08.553Z,64.30
2022-08-01T09:46:05.807Z,63.30
2022-08-01T09:51:07.132Z,66.00
2022-08-01T09:56:12.637Z,63.40
2022-08-01T10:01:08.737Z,57.90
2022-08-01T10:06:01.066Z,56.70
2022-08-01T10:11:12.403Z,58.70
2022-08-01T10:16:07.137Z,62.90
2022-08-01T10:21:01.543Z,66.20
2022-08-01T10:25:56.068Z,71.40
2022-08-01T10:30:49.955Z,67.10
2022-08-01T10:35:46.783Z,62.90
2022-08-01T10:40:41.502Z,62.70
2022-08-01T10:45:34.666Z,60.10
2022-08-01T10:50:35.992Z,60.40
2022-08-01T10:55:29.112Z,60.10
2022-08-01T11:00:23.916Z,62.30
2022-08-01T11:05:24.446Z,65.70
2022-08-01T11:10:34.377Z,68.30
2022-08-01T11:15:29.383Z,68.20
2022-08-01T11:20:41.565Z,65.50
2022-08-01T11:26:06.224Z,66.80
2022-08-01T11:30:56.151Z,68.80
2022-08-01T11:36:14.696Z,67.30
2022-08-01T11:41:16.347Z,61.30
2022-08-01T11:46:09.323Z,65.80
2022-08-01T11:51:01.895Z,73.00
2022-08-01T11:55:56.017Z,81.00
2022-08-01T12:00:55.940Z,84.00
2022-08-01T12:05:48.219Z,86.00
2022-08-01T12:10:47.008Z,86.10
2022-08-01T12:15:44.606Z,85.00
2022-08-01T12:20:42.816Z,84.30
2022-08-01T12:25:53.089Z,85.40
2022-08-01T12:30:49.839Z,86.70
2022-08-01T12:35:42.910Z,88.30
2022-08-01T12:40:45.037Z,87.70
2022-08-01T12:45:56.505Z,86.70
2022-08-01T12:50:53.496Z,82.50
2022-08-01T12:55:59.438Z,82.20
2022-08-01T13:01:05.336Z,82.20
2022-08-01T13:05:59.646Z,82.20
2022-08-01T13:11:21.486Z,82.20
2022-08-01T13:16:18.180Z,80.90
2022-08-01T13:21:25.938Z,80.00
2022-08-01T13:26:18.075Z,79.20
2022-08-01T13:31:11.733Z,78.50
2022-08-01T13:36:04.287Z,79.40
2022-08-01T13:40:59.907Z,80.20
2022-08-01T13:45:52.046Z,80.40
2022-08-01T13:50:44.176Z,80.30
2022-08-01T13:55:36.426Z,80.10
2022-08-01T14:00:28.571Z,82.00
2022-08-01T14:05:20.844Z,81.90
2022-08-01T14:10:19.302Z,82.40
2022-08-01T14:15:12.623Z,83.00
2022-08-01T14:20:06.608Z,82.80
2022-08-01T14:25:03.513Z,81.90
2022-08-01T14:30:02.760Z,82.10
2022-08-01T14:34:57.684Z,83.10
2022-08-01T14:39:54.403Z,83.50
2022-08-01T14:44:50.091Z,83.00
2022-08-01T14:49:42.380Z,83.60
2022-08-01T14:54:37.844Z,84.00
2022-08-01T14:59:30.097Z,83.00
2022-08-01T15:04:22.461Z,82.40
2022-08-01T15:09:14.564Z,83.20
2022-08-01T15:14:25.334Z,83.50
2022-08-01T15:19:17.883Z,83.20
2022-08-01T15:24:11.733Z,85.20
2022-08-01T15:35:53.914Z,85.50
2022-08-01T15:40:48.078Z,85.30
2022-08-01T15:45:49.286Z,86.10
2022-08-01T15:50:45.491Z,86.10
2022-08-01T15:55:41.516Z,86.70
2022-08-01T16:00:39.164Z,87.80
2022-08-01T16:05:33.307Z,87.60
2022-08-01T16:10:26.568Z,88.30
2022-08-01T16:15:18.780Z,89.30
2022-08-01T16:20:11.760Z,89.00
2022-08-01T16:25:06.321Z,87.90
2022-08-01T16:29:59.130Z,87.50
2022-08-01T16:34:51.327Z,85.20
2022-08-01T16:39:45.618Z,85.50
2022-08-01T16:44:41.947Z,86.80
2022-08-01T16:49:36.412Z,88.20
2022-08-01T16:54:28.613Z,89.70
2022-08-01T16:59:20.942Z,90.40
2022-08-01T17:04:13.018Z,90.80
2022-08-01T17:09:05.700Z,91.00
2022-08-01T17:13:58.221Z,91.60
2022-08-01T17:18:50.491Z,91.60
2022-08-01T17:23:43.772Z,91.70
2022-08-01T17:28:36.878Z,91.80
2022-08-01T17:33:45.345Z,91.50
2022-08-01T17:38:40.055Z,91.70
2022-08-01T17:43:36.342Z,92.00
2022-08-01T17:48:29.491Z,92.30
2022-08-01T17:53:24.343Z,92.70
2022-08-01T17:58:17.746Z,93.00
2022-08-01T18:03:32.891Z,93.40
2022-08-01T18:08:34.627Z,94.20
2022-08-01T18:13:29.220Z,94.90
2022-08-01T18:18:33.702Z,95.50
2022-08-01T18:23:27.761Z,96.30
2022-08-01T18:28:30.051Z,97.30
2022-08-01T18:33:30.007Z,98.20
2022-08-01T18:38:24.047Z,99.50
2022-08-01T18:43:18.628Z,99.90
2022-08-01T18:48:11.814Z,99.90
2022-08-01T18:53:04.058Z,99.90
2022-08-01T18:57:56.136Z,99.90
2022-08-01T19:02:48.344Z,99.90
2022-08-01T19:08:05.198Z,99.90
2022-08-01T19:12:52.966Z,99.90
2022-08-01T19:17:47.365Z,99.90
2022-08-01T19:22:39.497Z,99.90
2022-08-01T19:27:35.571Z,99.90
2022-08-01T19:32:32.947Z,99.90
2022-08-01T19:37:27.500Z,99.90
2022-08-01T19:42:20.853Z,99.90
2022-08-01T19:47:14.214Z,99.90
2022-08-01T19:52:06.808Z,99.90
2022-08-01T19:57:02.583Z,99.90
2022-08-01T20:01:55.241Z,99.90
2022-08-01T20:06:49.231Z,99.90
2022-08-01T20:11:47.054Z,99.90
2022-08-01T20:16:39.282Z,99.90
2022-08-01T20:21:34.497Z,99.90
2022-08-01T20:26:29.387Z,99.90
2022-08-01T20:31:23.821Z,99.90
2022-08-01T20:36:25.128Z,99.90
2022-08-01T20:41:29.162Z,99.90
2022-08-01T20:46:29.477Z,99.90
2022-08-01T20:51:31.605Z,99.90
2022-08-01T20:56:46.055Z,99.90
2022-08-01T21:01:57.804Z,99.90
2022-08-01T21:07:03.099Z,99.90
2022-08-01T21:12:05.517Z,99.90
2022-08-01T21:17:06.482Z,99.90
2022-08-01T21:22:10.907Z,99.90
2022-08-01T21:27:04.803Z,99.90
2022-08-01T21:32:14.752Z,99.90
2022-08-01T21:37:10.308Z,99.90
2022-08-01T21:42:08.959Z,99.90
2022-08-01T21:47:11.970Z,99.90
2022-08-01T21:52:12.191Z,99.90
2022-08-01T21:57:43.229Z,99.90
2022-08-01T22:02:43.884Z,99.90
2022-08-01T22:07:45.769Z,99.90
2022-08-01T22:12:38.209Z,99.90
2022-08-01T22:17:31.419Z,99.90
2022-08-01T22:22:45.228Z,99.90
2022-08-01T22:28:06.106Z,99.90
2022-08-01T22:33:15.333Z,99.90
2022-08-01T22:38:06.711Z,99.90
2022-08-01T22:43:07.699Z,99.90
2022-08-01T22:48:19.883Z,99.90
2022-08-01T22:53:29.857Z,99.90
2022-08-01T22:58:23.321Z,99.90
2022-08-01T23:03:30.150Z,99.90
2022-08-01T23:08:23.299Z,99.90
2022-08-01T23:13:16.441Z,99.90
2022-08-01T23:18:08.944Z,99.90
2022-08-01T23:23:03.668Z,99.90
2022-08-01T23:28:05.314Z,99.90
2022-08-01T23:32:59.193Z,99.90
2022-08-01T23:37:51.616Z,99.90
2022-08-01T23:42:43.870Z,99.90
2022-08-01T23:47:36.131Z,99.90
2022-08-01T23:52:32.060Z,99.90
2022-08-01T23:57:24.899Z,99.90
